Data for 03/25/2013

Time Sea-Level Adjusted Pressure Absolute Pressure Temperature Relative Humidity Dew Point   
(mb) (inHg) (mb) (inHg) (C) (F) (%) (C) (F)
00:05 1021 30.15 851 25.13 -7.5 18.6 49 -16.3 2.6
00:10 1021 30.15 851 25.13 -7.4 18.7 49 -16.4 2.4
00:15 1021 30.15 851 25.13 -7.2 19 48 -16.4 2.5
00:20 1021 30.15 851 25.13 -7.3 18.9 50 -16 3.1
00:25 1021 30.15 851 25.13 -7.4 18.7 51 -16 3.2
00:30 1021 30.15 851 25.13 -7.5 18.4 51 -16.1 3
00:35 1021 30.15 851 25.13 -7.6 18.3 51 -16 3.2
00:40 1021 30.15 851 25.13 -7.6 18.3 51 -16.1 2.9
00:45 1021 30.15 851 25.13 -7.6 18.3 50 -16.4 2.4
00:50 1021 30.15 851 25.13 -7.5 18.5 51 -16.1 3
00:55 1021 30.15 851 25.13 -7.6 18.4 50 -16.2 2.8
01:00 1021 30.15 851 25.13 -7.4 18.6 51 -15.8 3.5
01:05 1021 30.15 851 25.13 -7.7 18.2 54 -15.4 4.2
01:10 1021 30.15 851 25.13 -7.8 17.9 54 -15.6 3.9
01:15 1021 30.15 851 25.13 -7.8 17.9 52 -16 3.2
01:20 1021 30.15 851 25.13 -7.8 18.1 52 -15.9 3.3
01:25 1021 30.15 851 25.13 -8.1 17.4 55 -15.6 3.9
01:30 1021 30.15 851 25.13 -8.3 17.1 55 -15.8 3.6
01:35 1021 30.15 851 25.13 -8.3 17.1 55 -15.8 3.6
01:40 1021 30.15 851 25.13 -8.3 17 55 -15.9 3.4
01:45 1021 30.15 851 25.13 -8.4 16.8 54 -16.1 3
01:50 1021 30.15 851 25.13 -8.5 16.8 55 -16 3.1
01:55 1021 30.15 851 25.13 -8.5 16.7 55 -16 3.2
02:00 1021 30.15 851 25.13 -8.6 16.6 55 -16 3.1
02:05 1021 30.15 850 25.1 -8.6 16.5 54 -16.4 2.5
02:10 1021 30.15 850 25.1 -8.3 17.2 53 -16.3 2.7
02:15 1021 30.15 850 25.1 -8.1 17.4 54 -15.8 3.5
02:20 1021 30.15 851 25.13 -8 17.6 52 -16.1 2.9
02:25 1021 30.15 851 25.13 -7.9 17.7 52 -16.1 3.1
02:30 1021 30.15 851 25.13 -8.1 17.4 53 -16.1 3
02:35 1021 30.15 851 25.13 -8.2 17.2 53 -16.2 2.8
02:40 1021 30.15 850 25.1 -8.2 17.3 52 -16.3 2.7
02:45 1021 30.15 850 25.1 -8.1 17.5 54 -15.9 3.4
02:50 1021 30.15 850 25.1 -8.2 17.3 53 -16.1 3
02:55 1021 30.15 850 25.1 -8.1 17.5 52 -16.2 2.8
03:00 1021 30.15 850 25.1 -8.1 17.4 53 -16.1 3.1
03:05 1021 30.15 850 25.1 -8.3 17.1 53 -16.3 2.6
03:10 1021 30.15 850 25.1 -8.3 17.1 54 -16.1 3
03:15 1021 30.15 850 25.1 -8.4 16.9 54 -16.2 2.8
03:20 1021 30.15 850 25.1 -8.5 16.8 54 -16.3 2.7
03:25 1021 30.15 850 25.1 -8.6 16.5 54 -16.3 2.6
03:30 1021 30.15 850 25.1 -8.6 16.5 54 -16.3 2.6
03:35 1021 30.15 850 25.1 -8.6 16.5 54 -16.3 2.7
03:40 1021 30.15 850 25.1 -8.9 15.9 58 -15.9 3.4
03:45 1021 30.15 850 25.1 -9.1 15.6 57 -16.2 2.8
03:50 1021 30.15 850 25.1 -8.9 16 56 -16.2 2.8
03:55 1021 30.15 850 25.1 -9.1 15.7 56 -16.2 2.8
04:00 1021 30.15 850 25.1 -9 15.7 56 -16.3 2.7
04:05 1021 30.15 850 25.1 -9 15.7 56 -16.4 2.5
04:10 1021 30.15 850 25.1 -8.8 16.1 54 -16.5 2.4
04:15 1021 30.15 850 25.1 -8.8 16.3 54 -16.5 2.3
04:20 1021 30.15 850 25.1 -8.7 16.3 54 -16.6 2.2
04:25 1021 30.15 850 25.1 -8.9 16 56 -16.2 2.8
04:30 1021 30.15 850 25.1 -9 15.7 55 -16.6 2.1
04:35 1021 30.15 850 25.1 -8.7 16.4 53 -16.7 1.9
04:40 1021 30.15 850 25.1 -8.5 16.8 52 -16.7 1.9
04:45 1021 30.15 850 25.1 -8.2 17.3 50 -16.7 1.9
04:50 1021 30.15 850 25.1 -8.2 17.3 52 -16.5 2.3
04:55 1021 30.15 850 25.1 -8.4 16.9 52 -16.5 2.2
05:00 1021 30.15 850 25.1 -8.6 16.5 53 -16.5 2.2
05:05 1021 30.15 850 25.1 -8.6 16.5 53 -16.7 2
05:10 1021 30.15 850 25.1 -8.7 16.3 54 -16.4 2.4
05:15 1021 30.15 850 25.1 -8.8 16.2 53 -16.8 1.8
05:20 1021 30.15 850 25.1 -8.5 16.8 51 -16.8 1.8
05:25 1021 30.15 850 25.1 -8.4 16.8 52 -16.6 2
05:30 1021 30.15 850 25.1 -8.5 16.7 53 -16.6 2.2
05:35 1021 30.15 850 25.1 -8.8 16.1 54 -16.5 2.3
05:40 1021 30.15 850 25.1 -9.3 15.3 56 -16.5 2.2
05:45 1021 30.15 850 25.1 -9.4 15.2 54 -17 1.4
05:50 1021 30.15 850 25.1 -8.8 16.2 52 -17 1.4
05:55 1021 30.15 850 25.1 -8.2 17.2 51 -16.7 2
06:00 1021 30.15 850 25.1 -8 17.6 49 -16.9 1.6
06:05 1021 30.15 850 25.1 -7.8 18 47 -17.1 1.2
06:10 1021 30.15 850 25.1 -7.9 17.9 49 -16.8 1.7
06:15 1021 30.15 850 25.1 -8.4 16.9 52 -16.5 2.2
06:20 1021 30.15 850 25.1 -8.9 16 54 -16.6 2.2
06:25 1021 30.15 850 25.1 -9 15.9 53 -16.9 1.5
06:30 1021 30.15 850 25.1 -8.8 16.1 53 -16.8 1.8
06:35 1021 30.15 850 25.1 -8.8 16.1 52 -16.9 1.6
06:40 1021 30.15 850 25.1 -8.6 16.5 52 -16.9 1.6
06:45 1021 30.15 850 25.1 -8.5 16.6 51 -17 1.4
06:50 1021 30.15 850 25.1 -8.4 16.9 51 -16.8 1.7
06:55 1021 30.15 850 25.1 -8.2 17.3 50 -16.8 1.7
07:00 1021 30.15 850 25.1 -8.2 17.3 50 -16.9 1.5
07:05 1021 30.15 850 25.1 -8.1 17.4 49 -16.9 1.5
07:10 1021 30.15 850 25.1 -7.9 17.9 50 -16.7 2
07:15 1021 30.15 850 25.1 -7.5 18.5 48 -16.6 2
07:20 1021 30.15 850 25.1 -7.4 18.7 49 -16.3 2.7
07:25 1021 30.15 850 25.1 -7.3 18.9 50 -16 3.2
07:30 1021 30.15 850 25.1 -7.3 18.9 51 -15.8 3.5
07:35 1021 30.15 850 25.1 -7 19.4 49 -16 3.3
07:40 1021 30.15 850 25.1 -6.8 19.8 49 -15.9 3.4
07:45 1021 30.15 850 25.1 -6.6 20.1 47 -16.3 2.7
07:50 1021 30.15 850 25.1 -6.7 19.9 47 -16.3 2.6
07:55 1021 30.15 850 25.1 -6.4 20.5 46 -16.3 2.6
08:00 1021 30.15 850 25.1 -5.9 21.4 46 -15.8 3.5
08:05 1021 30.15 850 25.1 -5.6 22 43 -16.3 2.7
08:10 1021 30.15 850 25.1 -5.3 22.4 42 -16.3 2.7
08:15 1021 30.15 850 25.1 -4.8 23.4 39 -16.9 1.6
08:20 1021 30.15 850 25.1 -4.4 24 40 -16.2 2.8
08:25 1021 30.15 850 25.1 -4.2 24.5 39 -16.2 2.8
08:30 1021 30.15 850 25.1 -3.7 25.4 36 -16.8 1.7
08:35 1021 30.15 850 25.1 -4.2 24.5 37 -16.8 1.7
08:40 1021 30.15 850 25.1 -4 24.8 36 -17.2 1.1
08:45 1021 30.15 850 25.1 -3.9 24.9 35 -17.4 0.6
08:50 1021 30.15 850 25.1 -3.4 25.9 34 -17.2 1
08:55 1021 30.15 850 25.1 -3.1 26.5 33 -17.4 0.7
09:00 1021 30.15 850 25.1 -3 26.5 32 -17.4 0.6
09:05 1021 30.15 850 25.1 -2.8 27 32 -17.5 0.5
09:10 1021 30.15 850 25.1 -2.5 27.5 31 -17.4 0.7
09:15 1021 30.15 850 25.1 -2.3 27.8 32 -16.8 1.8
09:20 1021 30.15 850 25.1 -1.6 29.2 29 -17.3 0.8
09:25 1021 30.15 850 25.1 -1.1 30.1 30 -16.4 2.5
09:30 1021 30.15 850 25.1 -1 30.2 30 -16.6 2.2
09:35 1020 30.12 850 25.1 -1.1 30 31 -16.1 2.9
09:40 1020 30.12 850 25.1 -1.5 29.4 31 -16.6 2.1
09:45 1020 30.12 850 25.1 -1.6 29.2 32 -16.4 2.6
09:50 1020 30.12 850 25.1 -1.6 29.1 31 -16.6 2
09:55 1020 30.12 850 25.1 -1 30.2 30 -16.5 2.3
10:00 1020 30.12 850 25.1 -0.4 31.4 30 -16.1 3
10:05 1020 30.12 850 25.1 0 32.1 28 -16.5 2.3
10:10 1020 30.12 849 25.07 -0 31.9 29 -16.1 3
10:15 1020 30.12 849 25.07 0.1 32.2 28 -16.2 2.9
10:20 1020 30.12 849 25.07 0.7 33.3 28 -15.7 3.7
10:25 1020 30.12 849 25.07 1.7 35.1 25 -16.1 3
10:30 1020 30.12 849 25.07 2.4 36.4 25 -15.9 3.5
10:35 1020 30.12 849 25.07 2.1 35.7 26 -15.5 4.1
10:40 1020 30.12 849 25.07 2.1 35.8 25 -16 3.3
10:45 1020 30.12 849 25.07 1.5 34.7 26 -16.2 2.9
10:50 1020 30.12 849 25.07 0.9 33.7 27 -16.2 2.9
10:55 1020 30.12 849 25.07 2.2 36 26 -15.7 3.8
11:00 1020 30.12 849 25.07 1.7 35 25 -16.3 2.6
11:05 1020 30.12 849 25.07 2.6 36.8 24 -16.1 3.1
11:10 1020 30.12 849 25.07 3 37.3 25 -15.2 4.7
11:15 1020 30.12 849 25.07 1.9 35.5 27 -15.2 4.7
11:20 1020 30.12 849 25.07 2.1 35.8 25 -15.8 3.6
11:25 1020 30.12 849 25.07 2.5 36.5 25 -15.5 4.2
11:30 1020 30.12 849 25.07 3.3 37.9 23 -15.8 3.5
11:35 1020 30.12 849 25.07 3.2 37.8 23 -15.8 3.5
11:40 1020 30.12 849 25.07 3.3 37.9 25 -15.1 4.7
11:45 1020 30.12 849 25.07 2.8 37.1 25 -15.2 4.6
11:50 1020 30.12 849 25.07 3 37.3 24 -15.6 3.8
11:55 1020 30.12 849 25.07 4.1 39.3 20 -16.8 1.8
12:00 1019 30.09 849 25.07 3.2 37.7 23 -16.1 3
12:05 1019 30.09 849 25.07 2.9 37.2 25 -15.5 4.1
12:10 1019 30.09 849 25.07 3.5 38.2 23 -15.8 3.5
12:15 1019 30.09 848 25.04 3.2 37.7 24 -15.5 4.1
12:20 1019 30.09 848 25.04 3.9 39 23 -15.5 4.1
12:25 1019 30.09 848 25.04 3.2 37.7 24 -15.5 4.1
12:30 1019 30.09 848 25.04 3.8 38.9 21 -16.4 2.6
12:35 1019 30.09 848 25.04 3.7 38.6 25 -14.7 5.5
12:40 1019 30.09 848 25.04 3.6 38.4 23 -15.6 3.8
12:50 1019 30.09 848 25.04 4.9 40.8 18 -17.5 0.6
12:55 1019 30.09 848 25.04 5.5 41.8 20 -16.1 3.1
13:00 1019 30.09 848 25.04 5.1 41.2 18 -17.3 0.9
13:05 1019 30.09 848 25.04 5.4 41.8 19 -16.6 2.1
13:10 1019 30.09 848 25.04 6.1 43 19 -16.1 3.1
13:15 1019 30.09 848 25.04 6.1 43 18 -16.4 2.5
13:20 1019 30.09 848 25.04 6.3 43.3 19 -15.7 3.7
13:25 1019 30.09 848 25.04 5.8 42.4 20 -15.6 4
13:30 1019 30.09 848 25.04 4.9 40.9 20 -16.4 2.5
13:35 1018 30.06 848 25.04 5.6 42.2 20 -15.5 4
13:40 1018 30.06 848 25.04 6.5 43.8 19 -15.8 3.5
13:45 1018 30.06 848 25.04 6.4 43.6 20 -15.2 4.6
13:50 1018 30.06 848 25.04 5.7 42.3 19 -16.1 3
13:55 1018 30.06 847 25.01 7.2 44.9 18 -15.9 3.3
14:00 1018 30.06 847 25.01 7.7 45.8 18 -15.4 4.4
14:05 1018 30.06 847 25.01 7.1 44.7 20 -14.8 5.4
14:10 1018 30.06 847 25.01 7.1 44.9 18 -16 3.2
14:15 1018 30.06 847 25.01 7 44.6 18 -15.5 4
14:20 1018 30.06 847 25.01 6.8 44.2 18 -16.2 2.9
14:25 1018 30.06 847 25.01 6.3 43.4 19 -15.8 3.6
14:30 1018 30.06 847 25.01 6.4 43.6 18 -16.4 2.4
14:35 1018 30.06 847 25.01 6.5 43.7 20 -15.2 4.6
14:40 1018 30.06 847 25.01 7 44.5 19 -15.3 4.5
14:45 1018 30.06 847 25.01 6.8 44.3 20 -14.6 5.7
14:50 1018 30.06 847 25.01 6.5 43.8 19 -15.4 4.3
14:55 1018 30.06 847 25.01 6.6 44 19 -15.2 4.6
15:00 1018 30.06 847 25.01 7.1 44.9 19 -15.2 4.7
15:05 1018 30.06 847 25.01 7 44.5 22 -13.2 8.2
15:10 1018 30.06 847 25.01 6.7 44 21 -14.1 6.7
15:15 1018 30.06 847 25.01 6.7 44.1 22 -13.3 8.1
15:20 1018 30.06 847 25.01 6.2 43.2 22 -13.9 7
15:25 1018 30.06 847 25.01 5.7 42.3 21 -14.9 5.1
15:30 1017 30.03 847 25.01 6.7 44.1 21 -14.4 6.2
15:35 1017 30.03 847 25.01 7.2 44.9 21 -13.6 7.5
15:40 1017 30.03 847 25.01 6.8 44.3 21 -14.1 6.6
15:45 1017 30.03 847 25.01 6.7 44.1 23 -12.9 8.7
15:50 1017 30.03 846 24.98 6.3 43.3 20 -15.1 4.8
15:55 1017 30.03 847 25.01 6.8 44.2 22 -13.7 7.3
16:00 1017 30.03 846 24.98 6.8 44.2 22 -13.8 7.2
16:05 1017 30.03 846 24.98 6.3 43.3 22 -13.7 7.3
16:10 1017 30.03 846 24.98 6.3 43.3 20 -15.2 4.7
16:15 1017 30.03 846 24.98 6.4 43.5 24 -13 8.6
16:20 1017 30.03 846 24.98 6.5 43.6 22 -13.6 7.5
16:25 1017 30.03 846 24.98 6.3 43.4 19 -15.8 3.5
16:30 1017 30.03 846 24.98 7 44.7 17 -16.3 2.6
16:35 1017 30.03 846 24.98 7.5 45.6 17 -16.2 2.8
16:40 1017 30.03 846 24.98 7.5 45.5 17 -16 3.2
16:45 1017 30.03 846 24.98 7.3 45.1 17 -16.4 2.4
16:50 1017 30.03 846 24.98 7.2 44.9 17 -16.2 2.8
16:55 1017 30.03 846 24.98 7.2 45 16 -17.2 1.1
17:00 1017 30.03 846 24.98 7.3 45.1 15 -17.5 0.5
17:05 1017 30.03 846 24.98 6.7 44.1 17 -16.7 1.9
17:10 1017 30.03 846 24.98 6.8 44.3 17 -16.7 2
17:15 1017 30.03 846 24.98 7.3 45.1 15 -17.4 0.6
17:20 1017 30.03 846 24.98 7.5 45.5 15 -17.4 0.6
17:25 1017 30.03 846 24.98 7.5 45.4 15 -17.7 0.2
17:30 1017 30.03 846 24.98 7.6 45.6 15 -17.7 0.2
17:35 1017 30.03 846 24.98 6.9 44.4 19 -15.5 4.1
17:40 1017 30.03 846 24.98 6.3 43.4 19 -16 3.2
17:45 1017 30.03 846 24.98 6.1 43 20 -15 5
17:50 1017 30.03 846 24.98 5.8 42.5 23 -13.7 7.4
17:55 1017 30.03 846 24.98 5.3 41.5 22 -14.8 5.3
18:00 1017 30.03 846 24.98 5.2 41.3 24 -14 6.9
18:05 1017 30.03 846 24.98 5.1 41.2 24 -14 6.8
18:10 1017 30.03 846 24.98 5 40.9 24 -13.9 7
18:15 1017 30.03 846 24.98 4.6 40.3 24 -14.3 6.3
18:20 1017 30.03 846 24.98 4.5 40.1 25 -14.1 6.6
18:25 1017 30.03 846 24.98 4.4 40 26 -13.6 7.5
18:30 1017 30.03 846 24.98 4.3 39.8 25 -13.8 7.1
18:35 1017 30.03 846 24.98 4 39.3 28 -13 8.6
18:40 1016 30 846 24.98 3.6 38.4 29 -12.8 8.9
18:45 1016 30 846 24.98 3.3 37.9 30 -12.7 9.1
18:50 1016 30 846 24.98 2.9 37.2 32 -12.3 9.8
18:55 1016 30 846 24.98 2.5 36.5 33 -12.1 10.2
19:00 1016 30 846 24.98 2 35.6 35 -12 10.5
19:05 1016 30 846 24.98 1.7 35.1 34 -12.4 9.7
19:10 1016 30 846 24.98 1.6 34.8 35 -12.3 9.8
19:15 1016 30 846 24.98 1.3 34.3 37 -12 10.4
19:20 1016 30 846 24.98 1.1 33.9 38 -11.8 10.7
19:25 1016 30 846 24.98 0.9 33.6 38 -11.8 10.8
19:30 1016 30 846 24.98 0.7 33.2 39 -11.9 10.6
19:35 1016 30 846 24.98 0.6 33.1 39 -11.8 10.7
19:40 1016 30 846 24.98 0.6 33.1 40 -11.6 11.1
19:45 1016 30 846 24.98 0.3 32.5 40 -11.7 11
19:50 1016 30 846 24.98 0.2 32.4 40 -11.9 10.5
19:55 1016 30 846 24.98 0.2 32.3 39 -12.1 10.2
20:00 1016 30 846 24.98 0.1 32.1 39 -12.4 9.7
20:05 1016 30 846 24.98 0 32 38 -12.6 9.2
20:10 1016 30 846 24.98 -0 32 38 -12.7 9.2
20:15 1017 30.03 846 24.98 -0.1 31.9 39 -12.5 9.5
20:20 1017 30.03 846 24.98 -0.3 31.6 42 -11.8 10.8
20:25 1017 30.03 846 24.98 -0.6 31 41 -12.3 9.9
20:30 1017 30.03 846 24.98 -0.6 30.9 40 -12.7 9.1
20:35 1017 30.03 846 24.98 -0.5 31.1 40 -12.4 9.7
20:40 1017 30.03 846 24.98 -0.6 31 40 -12.5 9.5
20:45 1017 30.03 846 24.98 -0.7 30.7 42 -12.3 9.9
20:50 1017 30.03 846 24.98 -0.8 30.5 41 -12.6 9.3
20:55 1017 30.03 846 24.98 -0.6 30.8 39 -12.9 8.8
21:00 1017 30.03 846 24.98 -0.6 30.9 39 -12.8 8.9
21:05 1017 30.03 846 24.98 -0.7 30.8 38 -13.3 8.1
21:10 1017 30.03 846 24.98 -0.6 31 38 -13.2 8.2
21:15 1017 30.03 846 24.98 -0.7 30.7 39 -12.9 8.8
21:20 1017 30.03 846 24.98 -0.8 30.5 39 -13.2 8.3
21:25 1017 30.03 846 24.98 -0.8 30.6 37 -13.6 7.5
21:30 1017 30.03 846 24.98 -0.8 30.6 38 -13.5 7.7
21:35 1016 30 846 24.98 -0.8 30.6 38 -13.5 7.7
21:40 1016 30 846 24.98 -0.6 30.9 36 -13.9 6.9
21:45 1016 30 846 24.98 -0.5 31.1 36 -13.9 6.9
21:50 1016 30 846 24.98 -0.6 31 36 -13.9 7
21:55 1016 30 846 24.98 -0.7 30.7 38 -13.5 7.7
22:00 1016 30 846 24.98 -0.9 30.4 38 -13.5 7.6
22:05 1016 30 846 24.98 -0.9 30.4 37 -14 6.8
22:10 1016 30 846 24.98 -0.8 30.6 37 -13.6 7.5
22:15 1016 30 846 24.98 -0.9 30.4 38 -13.5 7.7
22:20 1016 30 846 24.98 -1 30.3 39 -13.4 7.9
22:25 1016 30 846 24.98 -1.1 30.1 38 -13.5 7.6
22:30 1016 30 846 24.98 -1.1 30.1 38 -13.6 7.5
22:35 1016 30 846 24.98 -1 30.2 37 -13.9 7
22:40 1016 30 846 24.98 -1 30.2 38 -13.6 7.5
22:45 1016 30 846 24.98 -1 30.2 37 -13.8 7.1
22:50 1016 30 846 24.98 -1 30.2 36 -14.1 6.6
22:55 1016 30 845 24.95 -0.9 30.4 36 -14.1 6.6
23:00 1016 30 845 24.95 -0.8 30.6 36 -14.2 6.5
23:05 1016 30 845 24.95 -0.8 30.6 36 -14.3 6.3
23:10 1016 30 845 24.95 -0.8 30.5 36 -14.3 6.3
23:15 1016 30 845 24.95 -0.8 30.6 35 -14.4 6
23:20 1016 30 845 24.95 -0.8 30.6 35 -14.4 6
23:25 1016 30 845 24.95 -0.8 30.5 35 -14.5 5.9
23:30 1016 30 845 24.95 -0.9 30.4 36 -14.2 6.5
23:35 1016 30 845 24.95 -1 30.2 35 -14.7 5.6
23:40 1016 30 845 24.95 -1 30.2 34 -15 5
23:45 1016 30 845 24.95 -1 30.3 34 -15 5
23:50 1016 30 845 24.95 -1 30.2 34 -14.8 5.3
23:55 1016 30 845 24.95 -1 30.3 33 -15.3 4.4
24:00 1016 30 845 24.95 -0.9 30.5 34 -15 5